Time;durP1;ratioP1;P1;durP2;ratioP2;P2;SDS_P1;SDS_P2;PMS_P1;PMS_P2;Temp;Humidity;BMP_temperature;BMP_pressure;BME280_temperature;BME280_humidity;BME280_pressure;Samples;Min_cycle;Max_cycle;Signal;HPM_P1;HPM_P2
2021/01/30 00:00:27;;;;;;;40.00;19.17;;;-1.70;99.90;;;;;;5310000;27;20542;-74
2021/01/30 00:02:55;;;;;;;45.00;20.60;;;-1.70;99.90;;;;;;5308704;27;20167;-73
2021/01/30 00:05:21;;;;;;;45.60;20.60;;;-1.60;99.90;;;;;;5310964;27;20114;-74
2021/01/30 00:07:48;;;;;;;41.33;19.03;;;-1.60;99.90;;;;;;5290467;27;20137;-74
2021/01/30 00:10:15;;;;;;;45.30;21.17;;;-1.60;99.90;;;;;;5309353;27;20114;-74
2021/01/30 00:12:42;;;;;;;44.47;19.83;;;-1.60;99.90;;;;;;5308131;27;20114;-74
2021/01/30 00:15:11;;;;;;;44.50;20.73;;;-1.60;99.90;;;;;;5309313;27;20147;-74
2021/01/30 00:17:38;;;;;;;44.40;19.33;;;-1.60;99.90;;;;;;5308732;27;20129;-73
2021/01/30 00:20:08;;;;;;;43.60;20.00;;;-1.60;99.90;;;;;;5309478;27;20114;-74
2021/01/30 00:22:34;;;;;;;42.20;20.20;;;-1.60;99.90;;;;;;5310886;27;20158;-73
2021/01/30 00:25:01;;;;;;;42.43;20.27;;;-1.70;99.90;;;;;;5310920;27;20372;-74
2021/01/30 00:27:27;;;;;;;42.33;19.77;;;-1.70;99.90;;;;;;5310824;27;20114;-74
2021/01/30 00:29:53;;;;;;;43.90;21.23;;;-1.60;99.90;;;;;;5308552;27;20373;-73
2021/01/30 00:32:21;;;;;;;42.63;20.10;;;-1.60;99.90;;;;;;5308697;27;20111;-73
2021/01/30 00:34:48;;;;;;;41.80;20.37;;;-1.60;99.90;;;;;;5310862;27;20118;-73
2021/01/30 00:37:20;;;;;;;44.70;19.80;;;-1.70;99.90;;;;;;5310691;27;20113;-73
2021/01/30 00:39:49;;;;;;;43.63;20.00;;;-1.60;99.90;;;;;;5310562;27;20222;-73
2021/01/30 00:42:17;;;;;;;46.57;20.23;;;-1.50;99.90;;;;;;5309300;27;20440;-73
2021/01/30 00:44:44;;;;;;;46.23;21.00;;;-1.50;99.90;;;;;;5308525;27;20150;-73
2021/01/30 00:47:12;;;;;;;42.83;19.87;;;-1.60;99.90;;;;;;5310678;27;20464;-73
2021/01/30 00:49:40;;;;;;;44.97;20.33;;;-1.60;99.90;;;;;;5310792;27;20114;-73
2021/01/30 00:52:08;;;;;;;44.60;20.17;;;-1.50;99.90;;;;;;5308654;27;20458;-73
2021/01/30 00:54:35;;;;;;;47.07;20.63;;;-1.50;99.90;;;;;;5308516;27;20462;-73
2021/01/30 00:57:02;;;;;;;44.07;19.60;;;-1.50;99.90;;;;;;5308629;27;20114;-73
2021/01/30 00:59:29;;;;;;;38.57;18.90;;;-1.60;99.90;;;;;;5310709;27;20152;-73
2021/01/30 01:01:55;;;;;;;41.77;19.63;;;-1.50;99.90;;;;;;5308461;27;20164;-73
2021/01/30 01:04:22;;;;;;;52.87;24.23;;;-1.60;99.90;;;;;;5310716;27;20127;-73
2021/01/30 01:06:49;;;;;;;43.83;19.13;;;-1.50;99.90;;;;;;5310720;27;20474;-73
2021/01/30 01:09:17;;;;;;;43.30;19.03;;;-1.40;99.90;;;;;;5308521;27;20210;-73
2021/01/30 01:11:46;;;;;;;34.37;16.90;;;-1.30;99.90;;;;;;5310244;27;20141;-73
2021/01/30 01:14:13;;;;;;;42.37;19.50;;;-1.50;99.90;;;;;;5308850;27;20122;-73
2021/01/30 01:16:39;;;;;;;38.47;18.50;;;-1.40;99.90;;;;;;5288902;27;20157;-73
2021/01/30 01:19:07;;;;;;;37.30;17.50;;;-1.40;99.90;;;;;;5311251;27;20165;-73
2021/01/30 01:21:33;;;;;;;37.17;17.17;;;-1.30;99.90;;;;;;5309663;27;20137;-73
2021/01/30 01:24:00;;;;;;;36.80;16.37;;;-1.40;99.90;;;;;;5310079;27;20114;-73
2021/01/30 01:26:27;;;;;;;36.70;16.83;;;-1.40;99.90;;;;;;5309835;27;20114;-73
2021/01/30 01:28:53;;;;;;;37.57;16.90;;;-1.50;99.90;;;;;;5312234;27;20114;-73
2021/01/30 01:31:21;;;;;;;35.27;17.07;;;-1.40;99.90;;;;;;5311889;27;20113;-73
2021/01/30 01:33:48;;;;;;;34.43;16.63;;;-1.40;99.90;;;;;;5310537;27;20479;-73
2021/01/30 01:36:18;;;;;;;38.07;17.90;;;-1.50;99.90;;;;;;5310001;27;20123;-73
2021/01/30 01:38:44;;;;;;;42.80;18.13;;;-1.50;99.90;;;;;;5309948;27;20130;-73
2021/01/30 01:41:12;;;;;;;39.67;17.87;;;-1.40;99.90;;;;;;5310282;27;20128;-73
2021/01/30 01:43:39;;;;;;;38.03;17.87;;;-1.50;99.90;;;;;;5309731;27;20177;-73
2021/01/30 01:46:28;;;;;;;41.73;19.17;;;-1.50;99.90;;;;;;5309775;27;20143;-73
2021/01/30 01:49:01;;;;;;;44.27;19.23;;;-1.50;99.90;;;;;;5309691;27;20461;-72
2021/01/30 01:51:46;;;;;;;41.57;19.77;;;-1.60;99.90;;;;;;5310762;27;20110;-73
2021/01/30 01:54:21;;;;;;;46.20;19.90;;;-1.60;99.90;;;;;;5312131;27;20133;-73
2021/01/30 01:56:52;;;;;;;43.93;19.60;;;-1.50;99.90;;;;;;5310746;27;20150;-73
2021/01/30 01:59:19;;;;;;;48.97;20.93;;;-1.40;99.90;;;;;;5309738;27;20462;-73
2021/01/30 02:01:48;;;;;;;49.10;21.17;;;-1.40;99.90;;;;;;5310118;27;20206;-73
2021/01/30 02:04:17;;;;;;;48.73;21.60;;;-1.50;99.90;;;;;;5309349;27;20145;-73
2021/01/30 02:06:49;;;;;;;48.57;22.57;;;-1.50;99.90;;;;;;5311239;27;20375;-73
2021/01/30 02:09:22;;;;;;;46.70;21.70;;;-1.50;99.90;;;;;;5309444;27;20138;-73
2021/01/30 02:12:06;;;;;;;55.53;22.73;;;-1.60;99.90;;;;;;5309600;27;20111;-73
2021/01/30 02:14:37;;;;;;;51.93;23.60;;;-1.50;99.90;;;;;;5309456;27;20353;-73
2021/01/30 02:17:18;;;;;;;52.30;22.50;;;-1.50;99.90;;;;;;5309564;27;20132;-73
2021/01/30 02:20:22;;;;;;;52.93;23.60;;;-1.60;99.90;;;;;;5312176;27;20320;-73
2021/01/30 02:23:04;;;;;;;51.67;22.40;;;-1.50;99.90;;;;;;5309507;27;20122;-73
2021/01/30 02:25:39;;;;;;;52.20;23.20;;;-1.60;99.90;;;;;;5310082;27;20109;-73
2021/01/30 02:28:21;;;;;;;56.60;24.23;;;-1.50;99.90;;;;;;5309495;27;20462;-73
2021/01/30 02:31:15;;;;;;;58.40;25.57;;;-1.50;99.90;;;;;;5311087;27;20155;-73
2021/01/30 02:34:00;;;;;;;57.40;25.77;;;-1.60;99.90;;;;;;5309788;27;20436;-73
2021/01/30 02:36:52;;;;;;;57.13;24.60;;;-1.70;99.90;;;;;;5309747;27;20146;-72
2021/01/30 02:39:28;;;;;;;62.33;25.73;;;-1.60;99.90;;;;;;5309815;27;20117;-72
2021/01/30 02:42:18;;;;;;;63.33;26.43;;;-1.60;99.90;;;;;;5309014;27;20118;-72
2021/01/30 02:45:12;;;;;;;60.57;25.97;;;-1.60;99.90;;;;;;5309069;27;20204;-72
2021/01/30 02:47:47;;;;;;;64.73;26.30;;;-1.60;99.90;;;;;;5311580;27;20123;-72
2021/01/30 02:50:48;;;;;;;62.07;26.30;;;-1.60;99.90;;;;;;5310254;27;20128;-72
2021/01/30 02:53:37;;;;;;;58.80;24.47;;;-1.60;99.90;;;;;;5220888;27;20160;-72
2021/01/30 02:56:05;;;;;;;65.13;26.57;;;-1.70;99.90;;;;;;5219873;27;20112;-72
2021/01/30 02:58:53;;;;;;;57.80;26.13;;;-1.70;99.90;;;;;;5222473;27;20119;-72
2021/01/30 03:01:19;;;;;;;64.43;26.67;;;-1.70;99.90;;;;;;5219949;27;20408;-72
2021/01/30 03:03:47;;;;;;;60.33;27.13;;;-1.70;99.90;;;;;;5221458;27;20386;-72
2021/01/30 03:06:39;;;;;;;60.77;27.10;;;-1.70;99.90;;;;;;5220045;27;20157;-72
2021/01/30 03:09:30;;;;;;;63.57;26.93;;;-1.60;99.90;;;;;;5220033;27;20516;-72
2021/01/30 03:12:12;;;;;;;61.60;26.20;;;-1.70;99.90;;;;;;5219492;27;20154;-72
2021/01/30 03:14:48;;;;;;;60.63;26.17;;;-1.60;99.90;;;;;;5221544;27;20438;-72
2021/01/30 03:17:18;;;;;;;63.17;27.07;;;-1.70;99.90;;;;;;5221048;27;20153;-72
2021/01/30 03:19:45;;;;;;;57.53;24.67;;;-1.70;99.90;;;;;;5222395;27;20115;-72
2021/01/30 03:22:13;;;;;;;58.17;26.03;;;-1.80;99.90;;;;;;5219952;27;20119;-72
2021/01/30 03:24:45;;;;;;;58.57;25.43;;;-1.80;99.90;;;;;;5220205;27;20150;-72
2021/01/30 03:27:25;;;;;;;60.50;25.87;;;-1.80;99.90;;;;;;5220242;27;20150;-72
2021/01/30 03:29:53;;;;;;;60.17;25.47;;;-1.80;99.90;;;;;;5259329;27;20159;-72
2021/01/30 03:32:19;;;;;;;57.63;25.63;;;-1.70;99.90;;;;;;5308844;27;20113;-73
2021/01/30 03:34:48;;;;;;;55.33;24.30;;;-1.70;99.90;;;;;;5310342;27;20156;-72
2021/01/30 03:37:15;;;;;;;63.07;25.90;;;-1.70;99.90;;;;;;5309705;27;20158;-72
2021/01/30 03:39:42;;;;;;;53.40;24.40;;;-1.70;99.90;;;;;;5311113;27;20155;-72
2021/01/30 03:42:09;;;;;;;55.40;26.27;;;-1.80;99.90;;;;;;5309880;27;20177;-73
2021/01/30 03:44:35;;;;;;;56.10;24.03;;;-1.70;99.90;;;;;;5309812;27;20371;-72
2021/01/30 03:47:02;;;;;;;55.00;23.97;;;-1.70;99.90;;;;;;5310573;27;20117;-72
2021/01/30 03:49:28;;;;;;;53.60;24.57;;;-1.70;99.90;;;;;;5311018;27;20114;-73
2021/01/30 03:51:55;;;;;;;52.50;22.90;;;-1.70;99.90;;;;;;5288928;27;20182;-72
2021/01/30 03:54:21;;;;;;;50.00;22.20;;;-1.60;99.90;;;;;;5310650;27;20154;-72
2021/01/30 03:56:48;;;;;;;49.67;22.00;;;-1.60;99.90;;;;;;5310841;27;20523;-73
2021/01/30 03:59:16;;;;;;;49.10;21.80;;;-1.60;99.90;;;;;;5308892;27;20118;-73
2021/01/30 04:01:43;;;;;;;45.23;20.77;;;-1.60;99.90;;;;;;5308539;27;20475;-73
2021/01/30 04:04:10;;;;;;;45.83;20.83;;;-1.60;99.90;;;;;;5310791;27;20416;-72
2021/01/30 04:06:37;;;;;;;45.83;21.37;;;-1.60;99.90;;;;;;5308799;27;20158;-72
2021/01/30 04:09:06;;;;;;;49.73;21.80;;;-1.60;99.90;;;;;;5308820;27;20404;-72
2021/01/30 04:11:33;;;;;;;43.10;19.97;;;-1.60;99.90;;;;;;5308066;27;20503;-72
2021/01/30 04:14:00;;;;;;;45.13;20.23;;;-1.50;99.90;;;;;;5308440;27;20116;-73
2021/01/30 04:16:27;;;;;;;38.83;19.00;;;-1.50;99.90;;;;;;5308557;27;20122;-72
2021/01/30 04:18:54;;;;;;;41.67;19.90;;;-1.50;99.90;;;;;;5307907;27;20148;-72
2021/01/30 04:21:21;;;;;;;44.53;20.50;;;-1.40;99.90;;;;;;5310551;27;20136;-72
2021/01/30 04:23:49;;;;;;;46.80;21.27;;;-1.50;99.90;;;;;;5308591;27;20171;-72
2021/01/30 04:26:17;;;;;;;42.97;20.63;;;-1.50;99.90;;;;;;5308539;27;20149;-72
2021/01/30 04:28:43;;;;;;;44.93;20.20;;;-1.40;99.90;;;;;;5310669;27;20157;-72
2021/01/30 04:31:10;;;;;;;44.50;20.03;;;-1.40;99.90;;;;;;5310853;27;20114;-73
2021/01/30 04:33:37;;;;;;;41.23;18.87;;;-1.50;99.90;;;;;;5308529;27;20155;-72
2021/01/30 04:36:06;;;;;;;40.93;19.53;;;-1.50;99.90;;;;;;5308553;27;20122;-72
2021/01/30 04:38:33;;;;;;;42.10;20.07;;;-1.50;99.90;;;;;;5308517;27;20174;-72
2021/01/30 04:41:07;;;;;;;43.13;20.20;;;-1.50;99.90;;;;;;5308613;27;20137;-72
2021/01/30 04:44:03;;;;;;;42.30;19.40;;;-1.50;99.90;;;;;;5310850;27;20357;-72
2021/01/30 04:47:01;;;;;;;45.27;19.77;;;-1.60;99.90;;;;;;5219994;27;20132;-72
2021/01/30 04:49:47;;;;;;;42.47;20.07;;;-1.50;99.90;;;;;;5136087;28;20156;-72
2021/01/30 04:52:22;;;;;;;43.77;19.30;;;-1.60;99.90;;;;;;5136550;28;20158;-72
2021/01/30 04:55:19;;;;;;;43.27;19.90;;;-1.70;99.90;;;;;;5137967;28;20128;-73
2021/01/30 04:58:00;;;;;;;44.60;19.27;;;-1.60;99.90;;;;;;5138379;28;20507;-72
2021/01/30 05:00:34;;;;;;;43.60;19.70;;;-1.60;99.90;;;;;;5136912;28;20381;-72
2021/01/30 05:03:09;;;;;;;40.27;18.60;;;-1.50;99.90;;;;;;5139317;28;20347;-72
2021/01/30 05:05:37;;;;;;;41.30;18.90;;;-1.50;99.90;;;;;;5136912;28;20172;-72
2021/01/30 05:08:47;;;;;;;42.13;19.40;;;-1.40;99.90;;;;;;5136920;28;20136;-72
2021/01/30 05:11:19;;;;;;;36.60;16.70;;;-1.40;99.90;;;;;;5137237;28;20212;-72
2021/01/30 05:14:19;;;;;;;35.77;17.03;;;-1.40;99.90;;;;;;5137221;28;20187;-72
2021/01/30 05:17:13;;;;;;;35.27;17.03;;;-1.40;99.90;;;;;;5137708;28;20128;-72
2021/01/30 05:19:46;;;;;;;36.40;16.80;;;-1.40;99.90;;;;;;5138669;28;20139;-72
2021/01/30 05:22:15;;;;;;;34.90;18.00;;;-1.40;99.90;;;;;;5139047;28;20129;-72
2021/01/30 05:24:44;;;;;;;38.30;18.30;;;-1.40;99.90;;;;;;5220576;27;20126;-72
2021/01/30 05:27:29;;;;;;;40.30;19.43;;;-1.30;99.90;;;;;;5290517;27;20144;-72
2021/01/30 05:30:20;;;;;;;41.53;19.60;;;-1.30;99.90;;;;;;5309980;27;20137;-73
2021/01/30 05:33:10;;;;;;;43.43;20.47;;;-1.40;99.90;;;;;;5310082;27;20326;-72
2021/01/30 05:35:45;;;;;;;45.10;20.90;;;-1.30;99.90;;;;;;5312234;27;20154;-72
2021/01/30 05:38:41;;;;;;;45.10;21.23;;;-1.30;99.90;;;;;;5309835;27;20113;-72
2021/01/30 05:41:22;;;;;;;44.40;20.80;;;-1.40;99.90;;;;;;5221671;27;20138;-72
2021/01/30 05:44:15;;;;;;;46.93;21.27;;;-1.40;99.90;;;;;;5220379;27;20135;-72
2021/01/30 05:46:41;;;;;;;45.77;20.97;;;-1.40;99.90;;;;;;5220597;27;20362;-72
2021/01/30 05:49:15;;;;;;;45.13;20.60;;;-1.30;99.90;;;;;;5222602;27;20474;-72
2021/01/30 05:51:53;;;;;;;44.97;19.57;;;-1.30;99.90;;;;;;5220908;27;20175;-73
2021/01/30 05:54:20;;;;;;;45.60;20.13;;;-1.30;99.90;;;;;;5222657;27;20314;-72
2021/01/30 05:56:46;;;;;;;46.03;20.90;;;-1.30;99.90;;;;;;5220047;27;20142;-72
2021/01/30 05:59:19;;;;;;;42.57;20.77;;;-1.30;99.90;;;;;;5222993;27;20123;-72
2021/01/30 06:01:45;;;;;;;40.83;19.53;;;-1.30;99.90;;;;;;5220736;27;20405;-72
2021/01/30 06:04:12;;;;;;;40.47;19.43;;;-1.40;99.90;;;;;;5220205;27;20111;-72
2021/01/30 06:06:53;;;;;;;39.30;19.57;;;-1.30;99.90;;;;;;5220166;27;20162;-72
2021/01/30 06:09:35;;;;;;;39.63;19.50;;;-1.30;99.90;;;;;;5220377;27;20135;-72
2021/01/30 06:12:16;;;;;;;45.17;20.70;;;-1.40;99.90;;;;;;5220510;27;20425;-77
2021/01/30 06:14:43;;;;;;;46.13;20.70;;;-1.40;99.90;;;;;;5220510;27;20142;-73
2021/01/30 06:17:36;;;;;;;45.60;21.67;;;-1.30;99.90;;;;;;5226174;27;20150;-73
2021/01/30 06:20:14;;;;;;;42.50;20.17;;;-1.30;99.90;;;;;;5264611;27;20156;-73
2021/01/30 06:22:42;;;;;;;49.20;20.93;;;-1.30;99.90;;;;;;5266084;27;20136;-73
2021/01/30 06:25:32;;;;;;;41.73;20.43;;;-1.20;99.90;;;;;;5267205;27;20111;-73
2021/01/30 06:28:08;;;;;;;46.40;21.07;;;-1.20;99.90;;;;;;5266478;27;20167;-73
2021/01/30 06:30:43;;;;;;;55.00;25.07;;;-1.20;99.90;;;;;;5267959;27;20382;-74
2021/01/30 06:33:27;;;;;;;61.63;26.63;;;-1.20;99.90;;;;;;5266226;27;20110;-73
2021/01/30 06:36:12;;;;;;;63.10;27.47;;;-1.20;99.90;;;;;;5265829;27;20168;-73
2021/01/30 06:38:43;;;;;;;68.70;29.03;;;-1.20;99.90;;;;;;5266168;27;20170;-73
2021/01/30 06:41:21;;;;;;;65.80;29.33;;;-1.20;99.90;;;;;;5268338;27;20419;-73
2021/01/30 06:44:12;;;;;;;66.87;28.83;;;-1.20;99.90;;;;;;5266640;27;20110;-73
2021/01/30 06:47:03;;;;;;;68.63;29.27;;;-1.20;99.90;;;;;;5267024;27;20117;-73
2021/01/30 06:49:45;;;;;;;67.77;29.17;;;-1.20;99.90;;;;;;5266244;27;20421;-76
2021/01/30 06:52:31;;;;;;;68.40;30.37;;;-1.20;99.90;;;;;;5267158;27;20129;-76
2021/01/30 06:55:04;;;;;;;70.03;30.27;;;-1.20;99.90;;;;;;5263635;27;20397;-72
2021/01/30 06:58:01;;;;;;;71.73;31.20;;;-1.10;99.90;;;;;;5267268;27;20489;-73
2021/01/30 07:00:35;;;;;;;75.00;31.67;;;-1.10;99.90;;;;;;5265582;27;20175;-73
2021/01/30 07:03:20;;;;;;;70.07;30.57;;;-1.10;99.90;;;;;;5265391;27;20114;-73
2021/01/30 07:05:55;;;;;;;76.37;31.23;;;-1.10;99.90;;;;;;5267545;27;20118;-74
2021/01/30 07:08:27;;;;;;;70.00;31.40;;;-1.10;99.90;;;;;;5284730;27;20431;-73
2021/01/30 07:11:21;;;;;;;77.83;33.10;;;-1.00;99.90;;;;;;5307299;27;20122;-73
2021/01/30 07:14:18;;;;;;;77.23;32.00;;;-1.10;99.90;;;;;;5311871;27;20436;-73
2021/01/30 07:16:56;;;;;;;69.70;30.37;;;-1.00;99.90;;;;;;5308519;27;20113;-73
2021/01/30 07:19:53;;;;;;;75.13;32.30;;;-1.00;99.90;;;;;;5309026;27;20122;-73
2021/01/30 07:22:30;;;;;;;79.03;33.67;;;-1.00;99.90;;;;;;5310633;27;20165;-74
2021/01/30 07:25:21;;;;;;;78.57;32.87;;;-1.00;99.90;;;;;;5289835;27;20128;-73
2021/01/30 07:27:51;;;;;;;71.60;30.77;;;-1.00;99.90;;;;;;5219974;27;20139;-73
2021/01/30 07:30:31;;;;;;;74.53;31.80;;;-1.00;99.90;;;;;;5222171;27;20137;-73
2021/01/30 07:33:06;;;;;;;78.67;31.53;;;-1.00;99.90;;;;;;5220031;27;20138;-73
2021/01/30 07:35:41;;;;;;;79.30;33.47;;;-1.00;99.90;;;;;;5221980;27;20137;-74
2021/01/30 07:38:30;;;;;;;75.50;32.10;;;-1.00;99.90;;;;;;5219696;27;20628;-73
2021/01/30 07:40:58;;;;;;;70.27;30.27;;;-0.90;99.90;;;;;;5219532;27;20193;-74
2021/01/30 07:43:26;;;;;;;71.07;30.37;;;-0.90;99.90;;;;;;5219268;27;20422;-73
2021/01/30 07:46:04;;;;;;;62.47;27.93;;;-0.80;99.90;;;;;;5222262;27;20139;-73
2021/01/30 07:48:41;;;;;;;66.83;27.90;;;-0.80;99.90;;;;;;5221512;27;20163;-73
2021/01/30 07:51:12;;;;;;;63.03;27.87;;;-0.80;99.90;;;;;;5221889;27;20174;-73
2021/01/30 07:53:40;;;;;;;65.10;28.33;;;-0.70;99.90;;;;;;5219858;27;20126;-74
2021/01/30 07:56:17;;;;;;;68.50;28.60;;;-0.70;99.90;;;;;;5221296;27;20596;-74
2021/01/30 07:59:11;;;;;;;62.67;27.47;;;-0.70;99.90;;;;;;5220520;27;20127;-74
2021/01/30 08:02:17;;;;;;;65.23;28.27;;;-0.70;99.90;;;;;;5220272;27;20158;-74
2021/01/30 08:04:58;;;;;;;64.70;28.03;;;-0.70;99.90;;;;;;5173130;27;20409;-73
2021/01/30 08:07:41;;;;;;;60.53;27.50;;;-0.70;99.90;;;;;;5221281;27;20156;-73
2021/01/30 08:10:18;;;;;;;59.90;27.13;;;-0.70;99.90;;;;;;5220193;27;20150;-74
2021/01/30 08:13:26;;;;;;;58.87;26.33;;;-0.60;99.90;;;;;;5222111;27;20111;-74
2021/01/30 08:16:30;;;;;;;62.13;26.43;;;-0.60;99.90;;;;;;5219758;27;20123;-74
2021/01/30 08:19:02;;;;;;;58.67;26.13;;;-0.60;99.90;;;;;;5221512;27;20149;-74
2021/01/30 08:21:58;;;;;;;57.33;26.40;;;-0.50;99.90;;;;;;5221659;27;20138;-74
2021/01/30 08:24:35;;;;;;;58.23;26.27;;;-0.40;99.90;;;;;;5219552;27;20126;-74
2021/01/30 08:27:02;;;;;;;59.93;27.57;;;-0.40;99.90;;;;;;5220194;27;20121;-74
2021/01/30 08:29:41;;;;;;;59.13;26.17;;;-0.30;99.90;;;;;;5223189;27;20119;-73
2021/01/30 08:32:25;;;;;;;57.17;26.30;;;-0.20;99.90;;;;;;5221105;27;20171;-73
2021/01/30 08:35:16;;;;;;;53.17;23.17;;;-0.20;99.90;;;;;;5221244;27;20149;-74
2021/01/30 08:37:55;;;;;;;52.60;24.17;;;-0.10;99.90;;;;;;5220802;27;20372;-74
2021/01/30 08:40:42;;;;;;;51.87;23.87;;;-0.10;99.90;;;;;;5225454;27;20111;-73
2021/01/30 08:43:20;;;;;;;54.27;24.67;;;-0.10;99.90;;;;;;5311062;27;20169;-73
2021/01/30 08:45:46;;;;;;;52.50;24.97;;;0.00;99.90;;;;;;5309197;27;20421;-74
2021/01/30 08:48:16;;;;;;;53.57;24.83;;;0.10;99.90;;;;;;5309076;27;20132;-73
2021/01/30 08:50:47;;;;;;;49.90;24.30;;;0.10;99.90;;;;;;5309913;27;20348;-73
2021/01/30 08:53:27;;;;;;;52.20;25.00;;;0.10;99.90;;;;;;5310939;27;20323;-73
2021/01/30 08:55:59;;;;;;;51.63;23.70;;;0.10;99.90;;;;;;5310422;27;20110;-73
2021/01/30 08:58:37;;;;;;;49.70;23.40;;;0.20;99.90;;;;;;5309857;27;20110;-73
2021/01/30 09:01:05;;;;;;;44.70;21.67;;;0.20;99.90;;;;;;5310100;27;20113;-72
2021/01/30 09:03:56;;;;;;;48.10;24.00;;;0.20;99.90;;;;;;5310422;27;20210;-72
2021/01/30 09:06:41;;;;;;;42.07;21.60;;;0.20;99.90;;;;;;5312016;27;20114;-73
2021/01/30 09:09:11;;;;;;;41.73;20.60;;;0.20;99.90;;;;;;5308843;27;20156;-72
2021/01/30 09:11:52;;;;;;;40.50;19.83;;;0.20;99.90;;;;;;5309546;27;20143;-73
2021/01/30 09:14:18;;;;;;;37.50;19.30;;;0.20;99.90;;;;;;5311357;27;20121;-73
2021/01/30 09:16:57;;;;;;;43.37;20.00;;;0.20;99.90;;;;;;5311852;27;20463;-73
2021/01/30 09:19:59;;;;;;;42.40;21.30;;;0.20;99.90;;;;;;5308503;27;20487;-73
2021/01/30 09:22:53;;;;;;;44.77;21.20;;;0.20;99.90;;;;;;5309577;27;20117;-73
2021/01/30 09:25:50;;;;;;;39.97;20.83;;;0.20;99.90;;;;;;5311866;27;20110;-73
2021/01/30 09:28:24;;;;;;;43.13;20.87;;;0.20;99.90;;;;;;5311452;27;20149;-73
2021/01/30 09:31:00;;;;;;;41.57;21.43;;;0.20;99.90;;;;;;5292390;27;20381;-73
2021/01/30 09:33:34;;;;;;;46.20;22.13;;;0.20;99.90;;;;;;5309715;27;20117;-73
2021/01/30 09:36:15;;;;;;;50.80;23.33;;;0.20;99.90;;;;;;5309616;27;20308;-73
2021/01/30 09:38:48;;;;;;;48.90;23.17;;;0.20;99.90;;;;;;5309119;27;20328;-73
2021/01/30 09:41:30;;;;;;;50.67;23.73;;;0.20;99.90;;;;;;5309419;27;20526;-73
2021/01/30 09:44:23;;;;;;;48.53;23.10;;;0.20;99.90;;;;;;5310471;27;20141;-73
2021/01/30 09:46:54;;;;;;;48.67;23.10;;;0.20;99.90;;;;;;5309045;27;20363;-73
2021/01/30 09:49:27;;;;;;;48.40;23.20;;;0.30;99.90;;;;;;5311516;27;20164;-73
2021/01/30 09:51:57;;;;;;;43.07;21.07;;;0.30;99.90;;;;;;5308513;27;20144;-73
2021/01/30 09:54:26;;;;;;;42.73;20.53;;;0.30;99.90;;;;;;5311548;27;20385;-73
2021/01/30 09:57:05;;;;;;;44.70;21.93;;;0.30;99.90;;;;;;5308958;27;20135;-73
2021/01/30 09:59:31;;;;;;;49.53;23.00;;;0.40;99.90;;;;;;5309422;27;20424;-73
2021/01/30 10:02:16;;;;;;;46.03;22.43;;;0.50;99.90;;;;;;5309387;27;20168;-73
2021/01/30 10:04:44;;;;;;;44.67;21.73;;;0.40;99.90;;;;;;5311554;27;20525;-73
2021/01/30 10:07:25;;;;;;;43.73;21.70;;;0.50;99.90;;;;;;5308490;27;20133;-73
2021/01/30 10:09:55;;;;;;;36.13;17.57;;;0.50;99.90;;;;;;5310816;27;20417;-73
2021/01/30 10:12:22;;;;;;;29.70;14.57;;;0.40;99.90;;;;;;5309009;27;20153;-73
2021/01/30 10:14:55;;;;;;;34.10;16.97;;;0.40;99.90;;;;;;5309177;27;20114;-74
2021/01/30 10:17:38;;;;;;;40.90;18.87;;;0.40;99.90;;;;;;5309784;27;20145;-74
2021/01/30 10:20:10;;;;;;;36.47;18.77;;;0.40;99.90;;;;;;5309321;27;20110;-73
2021/01/30 10:22:45;;;;;;;39.60;19.73;;;0.40;99.90;;;;;;5309221;27;20171;-74
2021/01/30 10:25:18;;;;;;;40.00;20.57;;;0.50;99.90;;;;;;5289894;27;20143;-74
2021/01/30 10:27:45;;;;;;;41.67;19.70;;;0.40;99.90;;;;;;5309602;27;20124;-73
2021/01/30 10:30:16;;;;;;;41.73;20.43;;;0.50;99.90;;;;;;5308926;27;20154;-74
2021/01/30 10:32:54;;;;;;;42.27;20.17;;;0.40;99.90;;;;;;5311171;27;20121;-74
2021/01/30 10:35:29;;;;;;;43.80;20.27;;;0.30;99.90;;;;;;5309231;27;20149;-74
2021/01/30 10:38:08;;;;;;;43.33;20.57;;;0.30;99.90;;;;;;5310184;27;20370;-74
2021/01/30 10:40:42;;;;;;;42.93;21.33;;;0.40;99.90;;;;;;5309309;27;20150;-75
2021/01/30 10:43:21;;;;;;;44.53;21.23;;;0.30;99.90;;;;;;5309558;27;20169;-73
2021/01/30 10:46:01;;;;;;;45.57;20.63;;;0.30;99.90;;;;;;5308296;27;20145;-74
2021/01/30 10:48:33;;;;;;;47.70;22.67;;;0.30;99.90;;;;;;5310266;27;20105;-73
2021/01/30 10:51:09;;;;;;;47.90;22.37;;;0.40;99.90;;;;;;5309459;27;20110;-75
2021/01/30 10:53:38;;;;;;;48.20;21.80;;;0.40;99.90;;;;;;5309392;27;20360;-73
2021/01/30 10:56:15;;;;;;;47.17;21.47;;;0.40;99.90;;;;;;5310937;27;20165;-73
2021/01/30 10:58:44;;;;;;;50.50;22.07;;;0.40;99.90;;;;;;5309707;27;20173;-74
2021/01/30 11:01:10;;;;;;;45.67;21.33;;;0.50;99.90;;;;;;5307865;27;20152;-74
2021/01/30 11:03:51;;;;;;;43.97;20.73;;;0.50;99.90;;;;;;5310676;27;20109;-74
2021/01/30 11:06:42;;;;;;;45.77;21.07;;;0.40;99.90;;;;;;5308406;27;20131;-74
2021/01/30 11:09:23;;;;;;;41.67;20.07;;;0.50;99.90;;;;;;5308661;27;20160;-74
2021/01/30 11:12:12;;;;;;;39.60;18.80;;;0.60;99.90;;;;;;5308160;27;20175;-74
2021/01/30 11:14:39;;;;;;;38.87;18.83;;;0.60;99.90;;;;;;5219560;27;20130;-74
2021/01/30 11:17:18;;;;;;;41.17;19.63;;;0.40;99.90;;;;;;5219357;27;20295;-75
2021/01/30 11:19:44;;;;;;;41.07;20.60;;;0.50;99.90;;;;;;5218647;27;20119;-75
2021/01/30 11:22:17;;;;;;;42.30;19.83;;;0.50;99.90;;;;;;5219290;27;20127;-75
2021/01/30 11:25:07;;;;;;;38.67;18.37;;;0.60;99.90;;;;;;5219231;27;20126;-74
2021/01/30 11:27:34;;;;;;;39.40;19.00;;;0.50;99.90;;;;;;5220031;27;20120;-74
2021/01/30 11:30:20;;;;;;;39.53;18.77;;;0.50;99.90;;;;;;5219284;27;20111;-74
2021/01/30 11:33:15;;;;;;;38.63;18.10;;;0.50;99.90;;;;;;5219413;27;20520;-74
2021/01/30 11:35:51;;;;;;;39.70;18.27;;;0.60;99.90;;;;;;5219533;27;20115;-74
2021/01/30 11:38:20;;;;;;;36.80;17.40;;;0.70;99.90;;;;;;5219298;27;20138;-74
2021/01/30 11:40:49;;;;;;;38.23;17.97;;;0.70;99.90;;;;;;5219822;27;20449;-74
2021/01/30 11:43:17;;;;;;;35.03;17.73;;;0.70;99.90;;;;;;5218916;27;20137;-74
2021/01/30 11:45:45;;;;;;;39.33;18.07;;;0.60;99.90;;;;;;5201324;27;20162;-73
2021/01/30 11:48:15;;;;;;;38.90;18.10;;;0.60;99.90;;;;;;5218801;27;20161;-74
2021/01/30 11:50:42;;;;;;;38.77;17.73;;;0.70;99.90;;;;;;5226067;27;20125;-73
2021/01/30 11:53:15;;;;;;;34.47;17.07;;;0.70;99.90;;;;;;5308892;27;20134;-74
2021/01/30 11:55:42;;;;;;;38.27;17.43;;;0.60;99.90;;;;;;5310739;27;20121;-73
2021/01/30 11:58:09;;;;;;;37.17;18.47;;;0.50;99.90;;;;;;5308433;27;20366;-71
2021/01/30 12:00:36;;;;;;;39.60;19.03;;;0.40;99.90;;;;;;5308225;27;20169;-71
2021/01/30 12:03:04;;;;;;;42.73;19.00;;;0.20;99.90;;;;;;5307258;27;20172;-72
2021/01/30 12:05:31;;;;;;;39.83;19.93;;;0.10;99.90;;;;;;5308661;27;20144;-73
2021/01/30 12:07:59;;;;;;;41.40;18.93;;;0.20;99.90;;;;;;5307991;27;20174;-72
2021/01/30 12:10:26;;;;;;;41.90;19.67;;;0.20;99.90;;;;;;5309008;27;20137;-70
2021/01/30 12:12:55;;;;;;;40.40;19.57;;;-0.10;99.90;;;;;;5307907;27;20123;-72
2021/01/30 12:15:22;;;;;;;40.00;19.53;;;0.10;99.90;;;;;;5309404;27;20156;-72
2021/01/30 12:17:49;;;;;;;42.73;19.80;;;-0.10;99.90;;;;;;5308123;27;20443;-72
2021/01/30 12:20:23;;;;;;;48.00;21.23;;;0.00;99.90;;;;;;5310323;27;20137;-71
2021/01/30 12:22:49;;;;;;;42.47;19.70;;;-0.10;99.90;;;;;;5309744;27;20549;-71
2021/01/30 12:25:18;;;;;;;44.43;21.23;;;-0.20;99.90;;;;;;5308643;27;20121;-71
2021/01/30 12:27:53;;;;;;;46.67;21.07;;;-0.30;99.90;;;;;;5310202;27;20132;-71
2021/01/30 12:30:23;;;;;;;44.40;19.60;;;-0.40;99.90;;;;;;5307819;27;20117;-71
2021/01/30 12:32:50;;;;;;;42.97;21.17;;;-0.30;99.90;;;;;;5308370;27;20161;-72
2021/01/30 12:35:20;;;;;;;44.03;20.63;;;-0.10;99.90;;;;;;5308918;27;20141;-72
2021/01/30 12:37:50;;;;;;;42.47;19.40;;;0.00;99.90;;;;;;5309386;27;20448;-72
2021/01/30 12:40:19;;;;;;;45.03;20.60;;;0.00;99.90;;;;;;5307717;27;20160;-71
2021/01/30 12:42:46;;;;;;;44.67;20.47;;;0.20;99.90;;;;;;5307357;27;20122;-71
2021/01/30 12:45:13;;;;;;;44.13;19.57;;;0.20;99.90;;;;;;5309598;27;20159;-72
2021/01/30 12:47:41;;;;;;;44.67;20.60;;;0.30;99.90;;;;;;5308200;27;20114;-72
2021/01/30 12:50:16;;;;;;;46.90;19.60;;;0.40;99.90;;;;;;5308135;27;20126;-72
2021/01/30 12:52:43;;;;;;;41.77;19.50;;;0.60;99.90;;;;;;5308556;27;20145;-72
2021/01/30 12:55:11;;;;;;;37.30;16.83;;;0.50;99.90;;;;;;5308044;27;20124;-72
2021/01/30 12:57:37;;;;;;;33.17;15.07;;;0.50;99.90;;;;;;5308310;27;20167;-72
2021/01/30 13:00:07;;;;;;;36.23;16.60;;;0.50;99.90;;;;;;5307512;27;20394;-72
2021/01/30 13:02:34;;;;;;;36.03;16.43;;;0.40;99.90;;;;;;5308260;27;20305;-71
2021/01/30 13:05:00;;;;;;;34.20;16.03;;;0.10;99.90;;;;;;5307578;27;20321;-73
2021/01/30 13:07:27;;;;;;;34.07;16.50;;;0.20;99.90;;;;;;5307402;27;20387;-72
2021/01/30 13:09:54;;;;;;;36.93;16.63;;;0.40;99.90;;;;;;5309758;27;20163;-72